sensor_id;sensor_type;location;lat;lon;timestamp;pressure;altitude;pressure_sealevel;temperature;humidity
70976;BME280;58635;51.198;6.010;2023-04-25T00:02:17;100897.34;;;11.84;53.17
70976;BME280;58635;51.198;6.010;2023-04-25T00:04:42;100903.50;;;11.83;53.24
70976;BME280;58635;51.198;6.010;2023-04-25T00:07:08;100901.09;;;11.82;53.27
70976;BME280;58635;51.198;6.010;2023-04-25T00:09:34;100902.91;;;11.81;53.41
70976;BME280;58635;51.198;6.010;2023-04-25T00:11:59;100909.25;;;11.79;53.36
70976;BME280;58635;51.198;6.010;2023-04-25T00:14:26;100913.63;;;11.78;53.65
70976;BME280;58635;51.198;6.010;2023-04-25T00:16:53;100913.63;;;11.78;53.52
70976;BME280;58635;51.198;6.010;2023-04-25T00:19:19;100912.25;;;11.76;53.50
70976;BME280;58635;51.198;6.010;2023-04-25T00:21:44;100908.84;;;11.75;53.69
70976;BME280;58635;51.198;6.010;2023-04-25T00:24:11;100909.06;;;11.74;53.61
70976;BME280;58635;51.198;6.010;2023-04-25T00:26:37;100911.84;;;11.72;53.55
70976;BME280;58635;51.198;6.010;2023-04-25T00:29:02;100912.81;;;11.71;53.69
70976;BME280;58635;51.198;6.010;2023-04-25T00:31:28;100921.59;;;11.70;54.04
70976;BME280;58635;51.198;6.010;2023-04-25T00:33:54;100919.00;;;11.70;53.73
70976;BME280;58635;51.198;6.010;2023-04-25T00:36:20;100919.63;;;11.72;53.95
70976;BME280;58635;51.198;6.010;2023-04-25T00:38:45;100914.44;;;11.72;53.88
70976;BME280;58635;51.198;6.010;2023-04-25T00:41:10;100912.44;;;11.74;53.82
70976;BME280;58635;51.198;6.010;2023-04-25T00:43:37;100913.25;;;11.75;54.00
70976;BME280;58635;51.198;6.010;2023-04-25T00:46:02;100909.84;;;11.74;53.85
70976;BME280;58635;51.198;6.010;2023-04-25T00:48:28;100913.59;;;11.71;53.99
70976;BME280;58635;51.198;6.010;2023-04-25T00:50:55;100910.44;;;11.69;54.03
70976;BME280;58635;51.198;6.010;2023-04-25T00:53:21;100915.00;;;11.67;53.92
70976;BME280;58635;51.198;6.010;2023-04-25T00:55:47;100914.41;;;11.65;53.99
70976;BME280;58635;51.198;6.010;2023-04-25T00:58:13;100910.44;;;11.63;53.90
70976;BME280;58635;51.198;6.010;2023-04-25T01:00:40;100915.81;;;11.61;54.13
70976;BME280;58635;51.198;6.010;2023-04-25T01:03:06;100909.22;;;11.59;53.98
70976;BME280;58635;51.198;6.010;2023-04-25T01:05:31;100904.63;;;11.54;54.16
70976;BME280;58635;51.198;6.010;2023-04-25T01:07:57;100913.41;;;11.53;54.24
70976;BME280;58635;51.198;6.010;2023-04-25T01:10:23;100915.38;;;11.51;54.18
70976;BME280;58635;51.198;6.010;2023-04-25T01:12:48;100915.75;;;11.48;54.25
70976;BME280;58635;51.198;6.010;2023-04-25T01:15:13;100911.78;;;11.46;54.40
70976;BME280;58635;51.198;6.010;2023-04-25T01:17:40;100910.19;;;11.45;54.51
70976;BME280;58635;51.198;6.010;2023-04-25T01:20:06;100912.16;;;11.42;54.49
70976;BME280;58635;51.198;6.010;2023-04-25T01:22:32;100919.34;;;11.40;54.68
70976;BME280;58635;51.198;6.010;2023-04-25T01:24:58;100909.19;;;11.39;54.50
70976;BME280;58635;51.198;6.010;2023-04-25T01:27:25;100912.94;;;11.36;54.77
70976;BME280;58635;51.198;6.010;2023-04-25T01:29:51;100914.94;;;11.34;54.76
70976;BME280;58635;51.198;6.010;2023-04-25T01:32:17;100927.28;;;11.32;54.78
70976;BME280;58635;51.198;6.010;2023-04-25T01:34:43;100925.09;;;11.29;54.92
70976;BME280;58635;51.198;6.010;2023-04-25T01:37:08;100921.91;;;11.27;54.78
70976;BME280;58635;51.198;6.010;2023-04-25T01:39:34;100929.06;;;11.25;55.01
70976;BME280;58635;51.198;6.010;2023-04-25T01:42:00;100919.88;;;11.23;55.01
70976;BME280;58635;51.198;6.010;2023-04-25T01:44:25;100922.66;;;11.21;55.14
70976;BME280;58635;51.198;6.010;2023-04-25T01:46:51;100914.28;;;11.19;54.99
70976;BME280;58635;51.198;6.010;2023-04-25T01:49:16;100927.44;;;11.18;55.26
70976;BME280;58635;51.198;6.010;2023-04-25T01:51:42;100922.66;;;11.15;55.26
70976;BME280;58635;51.198;6.010;2023-04-25T01:54:08;100926.22;;;11.13;55.09
70976;BME280;58635;51.198;6.010;2023-04-25T01:56:37;100935.16;;;11.11;55.45
70976;BME280;58635;51.198;6.010;2023-04-25T01:59:04;100929.97;;;11.11;55.43
70976;BME280;58635;51.198;6.010;2023-04-25T02:01:29;100929.38;;;11.09;55.43
70976;BME280;58635;51.198;6.010;2023-04-25T02:03:55;100929.38;;;11.09;55.55
70976;BME280;58635;51.198;6.010;2023-04-25T02:06:20;100931.97;;;11.09;55.59
70976;BME280;58635;51.198;6.010;2023-04-25T02:08:46;100930.38;;;11.08;55.52
70976;BME280;58635;51.198;6.010;2023-04-25T02:11:11;100934.75;;;11.07;55.67
70976;BME280;58635;51.198;6.010;2023-04-25T02:13:36;100941.72;;;11.07;55.69
70976;BME280;58635;51.198;6.010;2023-04-25T02:16:02;100937.53;;;11.06;55.59
70976;BME280;58635;51.198;6.010;2023-04-25T02:18:27;100938.34;;;11.06;55.70
70976;BME280;58635;51.198;6.010;2023-04-25T02:20:53;100940.13;;;11.06;55.85
70976;BME280;58635;51.198;6.010;2023-04-25T02:23:19;100936.75;;;11.05;55.82
70976;BME280;58635;51.198;6.010;2023-04-25T02:25:45;100941.72;;;11.07;55.80
70976;BME280;58635;51.198;6.010;2023-04-25T02:28:10;100945.09;;;11.07;55.87
70976;BME280;58635;51.198;6.010;2023-04-25T02:30:36;100943.50;;;11.06;55.86
70976;BME280;58635;51.198;6.010;2023-04-25T02:33:01;100941.72;;;11.07;55.74
70976;BME280;58635;51.198;6.010;2023-04-25T02:35:27;100934.75;;;11.07;55.90
70976;BME280;58635;51.198;6.010;2023-04-25T02:37:52;100943.50;;;11.06;55.92
70976;BME280;58635;51.198;6.010;2023-04-25T02:40:18;100949.28;;;11.02;55.79
70976;BME280;58635;51.198;6.010;2023-04-25T02:42:43;100952.03;;;11.00;55.97
70976;BME280;58635;51.198;6.010;2023-04-25T02:45:11;100951.22;;;11.00;55.92
70976;BME280;58635;51.198;6.010;2023-04-25T02:47:36;100946.25;;;10.98;55.96
70976;BME280;58635;51.198;6.010;2023-04-25T02:50:02;100953.22;;;10.98;56.05
70976;BME280;58635;51.198;6.010;2023-04-25T02:52:27;100948.03;;;10.98;55.91
70976;BME280;58635;51.198;6.010;2023-04-25T02:54:53;100948.03;;;10.98;55.78
70976;BME280;58635;51.198;6.010;2023-04-25T02:57:18;100956.78;;;10.97;55.91
70976;BME280;58635;51.198;6.010;2023-04-25T02:59:43;100948.22;;;10.96;56.00
70976;BME280;58635;51.198;6.010;2023-04-25T03:02:09;100945.66;;;10.96;56.12
70976;BME280;58635;51.198;6.010;2023-04-25T03:04:35;100942.25;;;10.96;56.11
70976;BME280;58635;51.198;6.010;2023-04-25T03:07:00;100937.28;;;10.94;56.13
70976;BME280;58635;51.198;6.010;2023-04-25T03:09:26;100943.25;;;10.95;56.11
70976;BME280;58635;51.198;6.010;2023-04-25T03:11:52;100936.28;;;10.95;56.25
70976;BME280;58635;51.198;6.010;2023-04-25T03:14:17;100941.47;;;10.95;56.14
70976;BME280;58635;51.198;6.010;2023-04-25T03:16:42;100944.06;;;10.95;56.29
70976;BME280;58635;51.198;6.010;2023-04-25T03:19:08;100939.88;;;10.94;56.11
70976;BME280;58635;51.198;6.010;2023-04-25T03:21:34;100943.66;;;10.92;56.04
70976;BME280;58635;51.198;6.010;2023-04-25T03:24:02;100937.88;;;10.90;56.08
70976;BME280;58635;51.198;6.010;2023-04-25T03:26:28;100943.22;;;10.88;56.20
70976;BME280;58635;51.198;6.010;2023-04-25T03:28:53;100948.22;;;10.90;56.14
70976;BME280;58635;51.198;6.010;2023-04-25T03:31:19;100950.16;;;10.88;56.16
70976;BME280;58635;51.198;6.010;2023-04-25T03:33:44;100948.56;;;10.87;56.23
70976;BME280;58635;51.198;6.010;2023-04-25T03:36:09;100950.56;;;10.84;56.35
70976;BME280;58635;51.198;6.010;2023-04-25T03:38:35;100954.94;;;10.84;56.23
70976;BME280;58635;51.198;6.010;2023-04-25T03:41:01;100958.53;;;10.83;56.22
70976;BME280;58635;51.198;6.010;2023-04-25T03:43:27;100960.31;;;10.82;56.39
70976;BME280;58635;51.198;6.010;2023-04-25T03:45:52;100952.53;;;10.82;56.18
70976;BME280;58635;51.198;6.010;2023-04-25T03:48:17;100960.31;;;10.82;56.22
70976;BME280;58635;51.198;6.010;2023-04-25T03:50:43;100967.28;;;10.82;56.30
70976;BME280;58635;51.198;6.010;2023-04-25T03:53:08;100967.47;;;10.80;56.47
70976;BME280;58635;51.198;6.010;2023-04-25T03:55:34;100960.69;;;10.79;56.30
70976;BME280;58635;51.198;6.010;2023-04-25T03:57:59;100961.50;;;10.80;56.43
70976;BME280;58635;51.198;6.010;2023-04-25T04:00:25;100970.44;;;10.77;56.40
70976;BME280;58635;51.198;6.010;2023-04-25T04:02:50;100973.03;;;10.77;56.36
70976;BME280;58635;51.198;6.010;2023-04-25T04:05:16;100967.03;;;10.77;56.33
70976;BME280;58635;51.198;6.010;2023-04-25T04:07:41;100974.00;;;10.76;56.46
70976;BME280;58635;51.198;6.010;2023-04-25T04:10:09;100970.44;;;10.77;56.34
70976;BME280;58635;51.198;6.010;2023-04-25T04:12:35;100973.03;;;10.77;56.46
70976;BME280;58635;51.198;6.010;2023-04-25T04:15:04;100974.00;;;10.76;56.45
70976;BME280;58635;51.198;6.010;2023-04-25T04:17:31;100974.97;;;10.75;56.50
70976;BME280;58635;51.198;6.010;2023-04-25T04:19:56;100976.78;;;10.75;56.42
70976;BME280;58635;51.198;6.010;2023-04-25T04:22:22;100980.94;;;10.76;56.62
70976;BME280;58635;51.198;6.010;2023-04-25T04:24:48;100978.19;;;10.77;56.37
70976;BME280;58635;51.198;6.010;2023-04-25T04:27:17;100987.56;;;10.78;56.47
70976;BME280;58635;51.198;6.010;2023-04-25T04:29:43;100985.78;;;10.79;56.63
70976;BME280;58635;51.198;6.010;2023-04-25T04:32:08;100984.97;;;10.78;56.48
70976;BME280;58635;51.198;6.010;2023-04-25T04:34:34;100994.31;;;10.79;56.55
70976;BME280;58635;51.198;6.010;2023-04-25T04:37:00;100994.31;;;10.79;56.46
70976;BME280;58635;51.198;6.010;2023-04-25T04:39:26;100998.72;;;10.79;56.63
70976;BME280;58635;51.198;6.010;2023-04-25T04:41:51;100997.72;;;10.80;56.61
70976;BME280;58635;51.198;6.010;2023-04-25T04:44:16;100996.91;;;10.79;56.58
70976;BME280;58635;51.198;6.010;2023-04-25T04:46:42;101006.09;;;10.82;56.40
70976;BME280;58635;51.198;6.010;2023-04-25T04:49:11;101018.81;;;10.83;56.46
70976;BME280;58635;51.198;6.010;2023-04-25T04:51:37;101013.47;;;10.85;56.43
70976;BME280;58635;51.198;6.010;2023-04-25T04:54:03;101010.47;;;10.88;56.41
70976;BME280;58635;51.198;6.010;2023-04-25T04:56:29;101011.28;;;10.89;56.41
70976;BME280;58635;51.198;6.010;2023-04-25T04:58:56;101013.72;;;10.90;56.19
70976;BME280;58635;51.198;6.010;2023-04-25T05:01:22;101021.28;;;10.92;56.13
70976;BME280;58635;51.198;6.010;2023-04-25T05:03:48;101022.06;;;10.92;55.95
70976;BME280;58635;51.198;6.010;2023-04-25T05:06:13;101019.28;;;10.94;56.12
70976;BME280;58635;51.198;6.010;2023-04-25T05:08:39;101024.28;;;10.95;55.98
70976;BME280;58635;51.198;6.010;2023-04-25T05:11:04;101021.69;;;10.95;55.90
70976;BME280;58635;51.198;6.010;2023-04-25T05:13:30;101030.06;;;10.97;55.67
70976;BME280;58635;51.198;6.010;2023-04-25T05:15:55;101035.03;;;10.99;55.77
70976;BME280;58635;51.198;6.010;2023-04-25T05:18:21;101036.47;;;11.01;55.60
70976;BME280;58635;51.198;6.010;2023-04-25T05:20:46;101039.88;;;11.02;55.45
70976;BME280;58635;51.198;6.010;2023-04-25T05:23:12;101041.25;;;11.04;55.51
70976;BME280;58635;51.198;6.010;2023-04-25T05:25:37;101047.66;;;11.08;55.55
70976;BME280;58635;51.198;6.010;2023-04-25T05:28:02;101053.44;;;11.10;55.48
70976;BME280;58635;51.198;6.010;2023-04-25T05:30:28;101053.06;;;11.13;55.24
70976;BME280;58635;51.198;6.010;2023-04-25T05:32:53;101057.66;;;11.18;55.20
70976;BME280;58635;51.198;6.010;2023-04-25T05:35:19;101052.09;;;11.21;55.18
70976;BME280;58635;51.198;6.010;2023-04-25T05:37:44;101055.13;;;11.25;55.06
70976;BME280;58635;51.198;6.010;2023-04-25T05:40:10;101063.13;;;11.30;55.13
70976;BME280;58635;51.198;6.010;2023-04-25T05:42:35;101066.13;;;11.33;54.96
70976;BME280;58635;51.198;6.010;2023-04-25T05:45:01;101057.97;;;11.36;54.84
70976;BME280;58635;51.198;6.010;2023-04-25T05:47:27;101064.56;;;11.39;54.72
70976;BME280;58635;51.198;6.010;2023-04-25T05:49:52;101075.34;;;11.42;54.98
70976;BME280;58635;51.198;6.010;2023-04-25T05:52:18;101078.13;;;11.48;54.81
70976;BME280;58635;51.198;6.010;2023-04-25T05:54:43;101076.38;;;11.55;54.47
70976;BME280;58635;51.198;6.010;2023-04-25T05:57:08;101080.63;;;11.62;54.39
70976;BME280;58635;51.198;6.010;2023-04-25T05:59:34;101078.66;;;11.71;54.20
70976;BME280;58635;51.198;6.010;2023-04-25T06:02:00;101088.25;;;11.77;54.01
70976;BME280;58635;51.198;6.010;2023-04-25T06:04:25;101089.47;;;11.81;53.83
70976;BME280;58635;51.198;6.010;2023-04-25T06:06:51;101088.53;;;11.89;53.60
70976;BME280;58635;51.198;6.010;2023-04-25T06:09:16;101088.53;;;11.95;53.44
70976;BME280;58635;51.198;6.010;2023-04-25T06:11:42;101086.78;;;12.03;53.09
70976;BME280;58635;51.198;6.010;2023-04-25T06:14:07;101092.75;;;12.03;53.08
70976;BME280;58635;51.198;6.010;2023-04-25T06:16:33;101090.56;;;12.07;52.88
70976;BME280;58635;51.198;6.010;2023-04-25T06:18:58;101099.56;;;12.11;52.67
70976;BME280;58635;51.198;6.010;2023-04-25T06:21:23;101094.38;;;12.11;52.59
70976;BME280;58635;51.198;6.010;2023-04-25T06:23:49;101099.38;;;12.12;52.72
70976;BME280;58635;51.198;6.010;2023-04-25T06:26:14;101102.56;;;12.14;52.80
70976;BME280;58635;51.198;6.010;2023-04-25T06:28:39;101102.38;;;12.16;52.50
70976;BME280;58635;51.198;6.010;2023-04-25T06:31:05;101100.38;;;12.18;52.47
70976;BME280;58635;51.198;6.010;2023-04-25T06:33:30;101099.19;;;12.20;52.28
70976;BME280;58635;51.198;6.010;2023-04-25T06:35:56;101105.59;;;12.24;52.11
70976;BME280;58635;51.198;6.010;2023-04-25T06:38:21;101106.78;;;12.28;51.96
70976;BME280;58635;51.198;6.010;2023-04-25T06:40:47;101111.19;;;12.35;51.91
70976;BME280;58635;51.198;6.010;2023-04-25T06:43:12;101112.00;;;12.42;51.68
70976;BME280;58635;51.198;6.010;2023-04-25T06:45:38;101113.41;;;12.51;51.33
70976;BME280;58635;51.198;6.010;2023-04-25T06:48:03;101113.81;;;12.61;51.06
70976;BME280;58635;51.198;6.010;2023-04-25T06:50:29;101118.84;;;12.69;50.86
70976;BME280;58635;51.198;6.010;2023-04-25T06:52:54;101119.41;;;12.78;50.58
70976;BME280;58635;51.198;6.010;2023-04-25T06:55:20;101123.41;;;12.87;50.24
70976;BME280;58635;51.198;6.010;2023-04-25T06:57:45;101121.41;;;12.96;50.09
70976;BME280;58635;51.198;6.010;2023-04-25T07:00:11;101124.00;;;13.09;49.94
70976;BME280;58635;51.198;6.010;2023-04-25T07:02:36;101128.00;;;13.31;49.42
70976;BME280;58635;51.198;6.010;2023-04-25T07:05:03;101131.16;;;13.53;49.04
70976;BME280;58635;51.198;6.010;2023-04-25T07:07:29;101137.75;;;13.62;48.49
70976;BME280;58635;51.198;6.010;2023-04-25T07:09:55;101128.69;;;13.71;48.00
70976;BME280;58635;51.198;6.010;2023-04-25T07:12:21;101133.50;;;13.74;47.87
70976;BME280;58635;51.198;6.010;2023-04-25T07:14:46;101133.50;;;13.74;47.53
70976;BME280;58635;51.198;6.010;2023-04-25T07:17:12;101145.09;;;13.72;47.16
70976;BME280;58635;51.198;6.010;2023-04-25T07:19:37;101143.13;;;13.67;47.29
70976;BME280;58635;51.198;6.010;2023-04-25T07:22:05;101145.50;;;13.69;47.44
70976;BME280;58635;51.198;6.010;2023-04-25T07:24:30;101150.28;;;13.72;47.40
70976;BME280;58635;51.198;6.010;2023-04-25T07:26:56;101148.31;;;13.74;47.20
70976;BME280;58635;51.198;6.010;2023-04-25T07:29:21;101157.28;;;13.78;47.02
70976;BME280;58635;51.198;6.010;2023-04-25T07:31:47;101161.69;;;13.78;46.44
70976;BME280;58635;51.198;6.010;2023-04-25T07:34:13;101166.50;;;13.74;46.48
70976;BME280;58635;51.198;6.010;2023-04-25T07:36:38;101166.88;;;13.78;46.56
70976;BME280;58635;51.198;6.010;2023-04-25T07:39:03;101158.44;;;13.89;46.23
70976;BME280;58635;51.198;6.010;2023-04-25T07:41:29;101164.41;;;13.96;45.77
70976;BME280;58635;51.198;6.010;2023-04-25T07:43:54;101169.81;;;14.01;45.54
70976;BME280;58635;51.198;6.010;2023-04-25T07:46:20;101169.19;;;14.05;45.72
70976;BME280;58635;51.198;6.010;2023-04-25T07:48:45;101171.75;;;14.12;45.32
70976;BME280;58635;51.198;6.010;2023-04-25T07:51:10;101169.75;;;14.08;45.08
70976;BME280;58635;51.198;6.010;2023-04-25T07:53:36;101180.59;;;14.04;45.01
70976;BME280;58635;51.198;6.010;2023-04-25T07:56:02;101185.22;;;13.96;44.88
70976;BME280;58635;51.198;6.010;2023-04-25T07:58:28;101185.66;;;13.86;44.96
70976;BME280;58635;51.198;6.010;2023-04-25T08:00:53;101187.28;;;13.81;44.85
70976;BME280;58635;51.198;6.010;2023-04-25T08:03:19;101201.06;;;13.81;45.24
70976;BME280;58635;51.198;6.010;2023-04-25T08:05:45;101195.66;;;13.83;45.03
70976;BME280;58635;51.198;6.010;2023-04-25T08:08:11;101201.44;;;13.91;44.92
70976;BME280;58635;51.198;6.010;2023-04-25T08:10:36;101206.22;;;14.01;44.78
70976;BME280;58635;51.198;6.010;2023-04-25T08:13:01;101206.38;;;14.13;44.80
70976;BME280;58635;51.198;6.010;2023-04-25T08:15:27;101199.72;;;14.23;44.46
70976;BME280;58635;51.198;6.010;2023-04-25T08:17:53;101199.69;;;14.30;43.95
70976;BME280;58635;51.198;6.010;2023-04-25T08:20:18;101216.25;;;14.42;43.74
70976;BME280;58635;51.198;6.010;2023-04-25T08:22:43;101204.81;;;14.56;43.69
70976;BME280;58635;51.198;6.010;2023-04-25T08:25:09;101218.94;;;14.67;43.54
70976;BME280;58635;51.198;6.010;2023-04-25T08:27:34;101214.50;;;14.74;43.24
70976;BME280;58635;51.198;6.010;2023-04-25T08:30:01;101218.06;;;14.80;42.88
70976;BME280;58635;51.198;6.010;2023-04-25T08:32:28;101226.63;;;14.87;42.36
70976;BME280;58635;51.198;6.010;2023-04-25T08:34:53;101221.56;;;14.99;42.29
70976;BME280;58635;51.198;6.010;2023-04-25T08:37:20;101225.44;;;15.14;41.63
70976;BME280;58635;51.198;6.010;2023-04-25T08:39:46;101225.28;;;15.34;40.51
70976;BME280;58635;51.198;6.010;2023-04-25T08:42:14;101221.75;;;15.47;39.78
70976;BME280;58635;51.198;6.010;2023-04-25T08:44:40;101234.34;;;15.50;39.28
70976;BME280;58635;51.198;6.010;2023-04-25T08:47:05;101238.63;;;15.44;39.16
70976;BME280;58635;51.198;6.010;2023-04-25T08:49:34;101236.50;;;15.35;38.72
70976;BME280;58635;51.198;6.010;2023-04-25T08:52:02;101237.03;;;15.18;38.81
70976;BME280;58635;51.198;6.010;2023-04-25T08:54:30;101239.53;;;15.07;39.05
70976;BME280;58635;51.198;6.010;2023-04-25T08:56:57;101250.97;;;15.06;39.19
70976;BME280;58635;51.198;6.010;2023-04-25T08:59:23;101255.91;;;15.14;39.90
70976;BME280;58635;51.198;6.010;2023-04-25T09:01:49;101246.78;;;15.30;40.09
70976;BME280;58635;51.198;6.010;2023-04-25T09:04:15;101252.50;;;15.38;39.91
70976;BME280;58635;51.198;6.010;2023-04-25T09:06:40;101261.72;;;15.41;39.95
70976;BME280;58635;51.198;6.010;2023-04-25T09:09:08;101256.91;;;15.38;39.95
70976;BME280;58635;51.198;6.010;2023-04-25T09:11:35;101270.38;;;15.35;39.83
70976;BME280;58635;51.198;6.010;2023-04-25T09:14:33;101270.22;;;15.30;39.90
70976;BME280;58635;51.198;6.010;2023-04-25T09:17:00;101278.75;;;15.43;39.80
70976;BME280;58635;51.198;6.010;2023-04-25T09:19:28;101276.19;;;15.62;39.16
70976;BME280;58635;51.198;6.010;2023-04-25T09:21:55;101282.31;;;15.74;39.06
70976;BME280;58635;51.198;6.010;2023-04-25T09:24:38;101291.84;;;15.87;38.11
70976;BME280;58635;51.198;6.010;2023-04-25T09:27:08;101292.19;;;15.90;37.54
70976;BME280;58635;51.198;6.010;2023-04-25T09:29:36;101296.75;;;15.95;37.68
70976;BME280;58635;51.198;6.010;2023-04-25T09:32:20;101296.31;;;15.98;37.19
70976;BME280;58635;51.198;6.010;2023-04-25T09:34:50;101300.56;;;15.99;37.02
70976;BME280;58635;51.198;6.010;2023-04-25T09:37:23;101299.94;;;15.97;37.02
70976;BME280;58635;51.198;6.010;2023-04-25T09:39:51;101308.56;;;15.97;36.87
70976;BME280;58635;51.198;6.010;2023-04-25T09:42:17;101309.53;;;16.03;36.84
70976;BME280;58635;51.198;6.010;2023-04-25T09:44:44;101305.47;;;16.07;36.52
70976;BME280;58635;51.198;6.010;2023-04-25T09:47:11;101314.84;;;16.15;36.74
70976;BME280;58635;51.198;6.010;2023-04-25T09:49:40;101315.69;;;16.27;36.72
70976;BME280;58635;51.198;6.010;2023-04-25T09:52:07;101314.41;;;16.36;37.00
70976;BME280;58635;51.198;6.010;2023-04-25T09:54:32;101318.28;;;16.45;36.43
70976;BME280;58635;51.198;6.010;2023-04-25T09:57:05;101318.91;;;16.47;36.23
70976;BME280;58635;51.198;6.010;2023-04-25T09:59:39;101324.69;;;16.49;36.04
70976;BME280;58635;51.198;6.010;2023-04-25T10:02:07;101332.38;;;16.44;35.61
70976;BME280;58635;51.198;6.010;2023-04-25T10:04:34;101327.81;;;16.40;35.87
70976;BME280;58635;51.198;6.010;2023-04-25T10:07:01;101334.28;;;16.37;35.95
70976;BME280;58635;51.198;6.010;2023-04-25T10:09:29;101335.13;;;16.31;35.98
70976;BME280;58635;51.198;6.010;2023-04-25T10:11:58;101340.00;;;16.27;36.10
70976;BME280;58635;51.198;6.010;2023-04-25T10:14:24;101337.03;;;16.24;35.90
70976;BME280;58635;51.198;6.010;2023-04-25T10:16:50;101339.69;;;16.17;36.08
70976;BME280;58635;51.198;6.010;2023-04-25T10:19:19;101342.38;;;16.11;36.10
70976;BME280;58635;51.198;6.010;2023-04-25T10:21:58;101344.38;;;16.08;36.18
70976;BME280;58635;51.198;6.010;2023-04-25T10:24:28;101339.59;;;16.05;36.61
70976;BME280;58635;51.198;6.010;2023-04-25T10:26:53;101341.56;;;16.10;36.74
70976;BME280;58635;51.198;6.010;2023-04-25T10:29:24;101341.84;;;16.20;36.96
70976;BME280;58635;51.198;6.010;2023-04-25T10:31:51;101338.19;;;16.28;36.83
70976;BME280;58635;51.198;6.010;2023-04-25T10:34:17;101331.28;;;16.33;36.65
70976;BME280;58635;51.198;6.010;2023-04-25T10:36:49;101335.06;;;16.37;36.57
70976;BME280;58635;51.198;6.010;2023-04-25T10:39:20;101333.75;;;16.28;36.98
70976;BME280;58635;51.198;6.010;2023-04-25T10:41:47;101330.56;;;16.26;36.49
70976;BME280;58635;51.198;6.010;2023-04-25T10:44:14;101332.81;;;16.23;36.20
70976;BME280;58635;51.198;6.010;2023-04-25T10:46:40;101338.03;;;16.23;36.25
70976;BME280;58635;51.198;6.010;2023-04-25T10:49:07;101336.81;;;16.25;36.14
70976;BME280;58635;51.198;6.010;2023-04-25T10:51:34;101329.50;;;16.34;36.11
70976;BME280;58635;51.198;6.010;2023-04-25T10:54:05;101333.75;;;16.47;36.44
70976;BME280;58635;51.198;6.010;2023-04-25T10:56:33;101333.69;;;16.72;35.99
70976;BME280;58635;51.198;6.010;2023-04-25T10:59:18;101337.66;;;17.04;35.75
70976;BME280;58635;51.198;6.010;2023-04-25T11:01:46;101330.47;;;17.30;34.91
70976;BME280;58635;51.198;6.010;2023-04-25T11:04:28;101331.31;;;17.42;34.99
70976;BME280;58635;51.198;6.010;2023-04-25T11:09:33;101336.19;;;17.50;33.55
70976;BME280;58635;51.198;6.010;2023-04-25T11:11:59;101343.91;;;17.33;34.32
70976;BME280;58635;51.198;6.010;2023-04-25T11:14:26;101351.19;;;17.01;35.35
70976;BME280;58635;51.198;6.010;2023-04-25T11:16:56;101353.91;;;16.76;36.07
70976;BME280;58635;51.198;6.010;2023-04-25T11:19:22;101363.53;;;16.57;36.77
70976;BME280;58635;51.198;6.010;2023-04-25T11:21:48;101359.50;;;16.43;37.41
70976;BME280;58635;51.198;6.010;2023-04-25T11:24:16;101356.53;;;16.40;38.23
70976;BME280;58635;51.198;6.010;2023-04-25T11:26:42;101360.94;;;16.39;38.50
70976;BME280;58635;51.198;6.010;2023-04-25T11:29:08;101370.94;;;16.42;38.43
70976;BME280;58635;51.198;6.010;2023-04-25T11:31:33;101361.31;;;16.43;37.91
70976;BME280;58635;51.198;6.010;2023-04-25T11:34:00;101366.63;;;16.36;37.77
70976;BME280;58635;51.198;6.010;2023-04-25T11:36:26;101368.22;;;16.37;37.98
70976;BME280;58635;51.198;6.010;2023-04-25T11:38:53;101360.88;;;16.46;37.96
70976;BME280;58635;51.198;6.010;2023-04-25T11:41:21;101352.31;;;16.57;37.61
70976;BME280;58635;51.198;6.010;2023-04-25T11:43:48;101359.16;;;16.76;37.21
70976;BME280;58635;51.198;6.010;2023-04-25T11:46:14;101355.03;;;16.99;36.03
70976;BME280;58635;51.198;6.010;2023-04-25T11:48:41;101352.50;;;17.22;35.13
70976;BME280;58635;51.198;6.010;2023-04-25T11:51:07;101355.63;;;17.42;34.59
70976;BME280;58635;51.198;6.010;2023-04-25T11:53:33;101352.69;;;17.62;34.47
70976;BME280;58635;51.198;6.010;2023-04-25T11:55:58;101347.16;;;17.70;34.43
70976;BME280;58635;51.198;6.010;2023-04-25T11:58:25;101347.81;;;17.66;34.09
70976;BME280;58635;51.198;6.010;2023-04-25T12:00:51;101347.44;;;17.50;34.20
70976;BME280;58635;51.198;6.010;2023-04-25T12:03:17;101342.78;;;17.41;33.47
70976;BME280;58635;51.198;6.010;2023-04-25T12:05:44;101354.44;;;17.27;33.23
70976;BME280;58635;51.198;6.010;2023-04-25T12:08:13;101361.09;;;17.11;32.14
70976;BME280;58635;51.198;6.010;2023-04-25T12:10:41;101359.91;;;16.95;32.27
70976;BME280;58635;51.198;6.010;2023-04-25T12:13:20;101362.53;;;16.95;31.78
70976;BME280;58635;51.198;6.010;2023-04-25T12:15:46;101356.41;;;17.01;32.01
70976;BME280;58635;51.198;6.010;2023-04-25T12:18:12;101354.28;;;17.10;32.29
70976;BME280;58635;51.198;6.010;2023-04-25T12:20:37;101360.59;;;17.32;32.58
70976;BME280;58635;51.198;6.010;2023-04-25T12:23:05;101364.44;;;17.71;32.28
70976;BME280;58635;51.198;6.010;2023-04-25T12:25:42;101366.84;;;18.08;31.37
70976;BME280;58635;51.198;6.010;2023-04-25T12:28:21;101378.47;;;18.35;31.08
70976;BME280;58635;51.198;6.010;2023-04-25T12:30:58;101378.44;;;18.47;29.54
70976;BME280;58635;51.198;6.010;2023-04-25T12:33:25;101380.84;;;18.37;30.31
70976;BME280;58635;51.198;6.010;2023-04-25T12:35:53;101382.44;;;18.15;31.93
70976;BME280;58635;51.198;6.010;2023-04-25T12:38:25;101396.34;;;17.92;33.12
70976;BME280;58635;51.198;6.010;2023-04-25T12:40:51;101400.00;;;17.61;33.86
70976;BME280;58635;51.198;6.010;2023-04-25T12:43:16;101412.38;;;17.42;34.83
70976;BME280;58635;51.198;6.010;2023-04-25T12:45:43;101416.63;;;17.24;34.75
70976;BME280;58635;51.198;6.010;2023-04-25T12:48:08;101404.75;;;17.10;35.38
70976;BME280;58635;51.198;6.010;2023-04-25T12:50:34;101420.94;;;17.01;35.37